sensor_id;sensor_type;location;lat;lon;timestamp;pressure;altitude;pressure_sealevel;temperature;humidity
59531;BME280;45349;48.692;8.186;2022-10-16T00:00:43;98515.31;;;16.52;96.44
59531;BME280;45349;48.692;8.186;2022-10-16T00:03:10;98516.25;;;16.44;97.60
59531;BME280;45349;48.692;8.186;2022-10-16T00:05:41;98527.13;;;16.34;99.46
59531;BME280;45349;48.692;8.186;2022-10-16T00:08:10;98518.38;;;16.27;99.72
59531;BME280;45349;48.692;8.186;2022-10-16T00:10:37;98518.34;;;16.20;100.00
59531;BME280;45349;48.692;8.186;2022-10-16T00:13:04;98500.44;;;16.16;100.00
59531;BME280;45349;48.692;8.186;2022-10-16T00:15:34;98504.72;;;16.17;100.00
59531;BME280;45349;48.692;8.186;2022-10-16T00:18:02;98500.06;;;16.19;99.13
59531;BME280;45349;48.692;8.186;2022-10-16T00:20:29;98507.97;;;16.19;99.06
59531;BME280;45349;48.692;8.186;2022-10-16T00:22:56;98505.34;;;16.19;99.77
59531;BME280;45349;48.692;8.186;2022-10-16T00:25:23;98507.56;;;16.15;99.98
59531;BME280;45349;48.692;8.186;2022-10-16T00:27:49;98515.00;;;16.12;100.00
59531;BME280;45349;48.692;8.186;2022-10-16T00:30:16;98503.41;;;16.06;100.00
59531;BME280;45349;48.692;8.186;2022-10-16T00:32:44;98503.53;;;15.98;100.00
59531;BME280;45349;48.692;8.186;2022-10-16T00:35:11;98509.72;;;16.12;99.42
59531;BME280;45349;48.692;8.186;2022-10-16T00:37:37;98505.91;;;16.14;100.00
59531;BME280;45349;48.692;8.186;2022-10-16T00:40:04;98508.09;;;16.11;100.00
59531;BME280;45349;48.692;8.186;2022-10-16T00:42:31;98502.22;;;16.08;100.00
59531;BME280;45349;48.692;8.186;2022-10-16T00:44:58;98505.03;;;16.07;100.00
59531;BME280;45349;48.692;8.186;2022-10-16T00:47:27;98511.69;;;16.03;100.00
59531;BME280;45349;48.692;8.186;2022-10-16T00:50:00;98522.59;;;16.00;100.00
59531;BME280;45349;48.692;8.186;2022-10-16T00:52:28;98527.41;;;15.96;100.00
59531;BME280;45349;48.692;8.186;2022-10-16T00:54:56;98515.47;;;15.93;100.00
59531;BME280;45349;48.692;8.186;2022-10-16T00:57:24;98525.56;;;15.90;100.00
59531;BME280;45349;48.692;8.186;2022-10-16T00:59:51;98526.28;;;15.84;100.00
59531;BME280;45349;48.692;8.186;2022-10-16T01:02:19;98523.03;;;15.82;100.00
59531;BME280;45349;48.692;8.186;2022-10-16T01:04:48;98516.28;;;15.79;100.00
59531;BME280;45349;48.692;8.186;2022-10-16T01:07:24;98522.56;;;15.78;100.00
59531;BME280;45349;48.692;8.186;2022-10-16T01:10:01;98526.41;;;15.75;100.00
59531;BME280;45349;48.692;8.186;2022-10-16T01:12:36;98520.69;;;15.72;100.00
59531;BME280;45349;48.692;8.186;2022-10-16T01:15:10;98517.25;;;15.71;100.00
59531;BME280;45349;48.692;8.186;2022-10-16T01:17:42;98508.88;;;15.68;100.00
59531;BME280;45349;48.692;8.186;2022-10-16T01:20:13;98509.63;;;15.61;100.00
59531;BME280;45349;48.692;8.186;2022-10-16T01:22:59;98513.63;;;15.57;100.00
59531;BME280;45349;48.692;8.186;2022-10-16T01:25:39;98520.91;;;15.55;100.00
59531;BME280;45349;48.692;8.186;2022-10-16T01:28:11;98519.63;;;15.51;100.00
59531;BME280;45349;48.692;8.186;2022-10-16T01:30:40;98520.63;;;15.50;100.00
59531;BME280;45349;48.692;8.186;2022-10-16T01:33:11;98513.75;;;15.49;100.00
59531;BME280;45349;48.692;8.186;2022-10-16T01:35:43;98523.47;;;15.48;100.00
59531;BME280;45349;48.692;8.186;2022-10-16T01:38:16;98520.22;;;15.46;100.00
59531;BME280;45349;48.692;8.186;2022-10-16T01:40:46;98521.56;;;15.42;100.00
59531;BME280;45349;48.692;8.186;2022-10-16T01:43:20;98518.31;;;15.40;100.00
59531;BME280;45349;48.692;8.186;2022-10-16T01:45:52;98512.84;;;15.42;100.00
59531;BME280;45349;48.692;8.186;2022-10-16T01:48:19;98511.06;;;15.42;100.00
59531;BME280;45349;48.692;8.186;2022-10-16T01:50:53;98503.72;;;15.38;100.00
59531;BME280;45349;48.692;8.186;2022-10-16T01:53:22;98499.66;;;15.35;100.00
59531;BME280;45349;48.692;8.186;2022-10-16T01:55:50;98500.22;;;15.30;100.00
59531;BME280;45349;48.692;8.186;2022-10-16T01:58:21;98509.28;;;15.28;100.00
59531;BME280;45349;48.692;8.186;2022-10-16T02:00:51;98504.38;;;15.25;100.00
59531;BME280;45349;48.692;8.186;2022-10-16T02:03:22;98498.50;;;15.23;100.00
59531;BME280;45349;48.692;8.186;2022-10-16T02:05:50;98506.09;;;15.17;100.00
59531;BME280;45349;48.692;8.186;2022-10-16T02:08:18;98508.31;;;15.14;100.00
59531;BME280;45349;48.692;8.186;2022-10-16T02:10:45;98513.72;;;15.12;100.00
59531;BME280;45349;48.692;8.186;2022-10-16T02:13:13;98514.47;;;15.06;100.00
59531;BME280;45349;48.692;8.186;2022-10-16T02:15:45;98519.28;;;15.02;100.00
59531;BME280;45349;48.692;8.186;2022-10-16T02:18:11;98522.53;;;15.04;100.00
59531;BME280;45349;48.692;8.186;2022-10-16T02:20:44;98519.66;;;14.99;100.00
59531;BME280;45349;48.692;8.186;2022-10-16T02:23:19;98512.38;;;15.01;100.00
59531;BME280;45349;48.692;8.186;2022-10-16T02:25:50;98517.75;;;14.93;100.00
59531;BME280;45349;48.692;8.186;2022-10-16T02:28:25;98518.75;;;14.92;100.00
59531;BME280;45349;48.692;8.186;2022-10-16T02:30:56;98517.53;;;14.95;100.00
59531;BME280;45349;48.692;8.186;2022-10-16T02:33:25;98517.47;;;14.88;100.00
59531;BME280;45349;48.692;8.186;2022-10-16T02:35:54;98516.00;;;14.85;100.00
59531;BME280;45349;48.692;8.186;2022-10-16T02:38:21;98517.91;;;14.76;100.00
59531;BME280;45349;48.692;8.186;2022-10-16T02:40:49;98519.28;;;14.72;100.00
59531;BME280;45349;48.692;8.186;2022-10-16T02:43:16;98524.72;;;14.71;100.00
59531;BME280;45349;48.692;8.186;2022-10-16T02:45:42;98528.97;;;14.72;100.00
59531;BME280;45349;48.692;8.186;2022-10-16T02:48:10;98530.59;;;14.73;100.00
59531;BME280;45349;48.692;8.186;2022-10-16T02:50:37;98526.34;;;14.72;100.00
59531;BME280;45349;48.692;8.186;2022-10-16T02:53:03;98521.44;;;14.69;100.00
59531;BME280;45349;48.692;8.186;2022-10-16T02:55:30;98532.66;;;14.63;100.00
59531;BME280;45349;48.692;8.186;2022-10-16T02:57:57;98532.00;;;14.60;100.00
59531;BME280;45349;48.692;8.186;2022-10-16T03:03:02;98523.03;;;14.55;100.00
59531;BME280;45349;48.692;8.186;2022-10-16T03:05:30;98526.84;;;14.52;100.00
59531;BME280;45349;48.692;8.186;2022-10-16T03:07:57;98520.94;;;14.50;100.00
59531;BME280;45349;48.692;8.186;2022-10-16T03:10:25;98518.13;;;14.52;100.00
59531;BME280;45349;48.692;8.186;2022-10-16T03:12:52;98523.84;;;14.55;100.00
59531;BME280;45349;48.692;8.186;2022-10-16T03:15:18;98517.97;;;14.53;100.00
59531;BME280;45349;48.692;8.186;2022-10-16T03:17:45;98520.41;;;14.55;100.00
59531;BME280;45349;48.692;8.186;2022-10-16T03:20:11;98521.59;;;14.52;100.00
59531;BME280;45349;48.692;8.186;2022-10-16T03:22:39;98516.13;;;14.54;100.00
59531;BME280;45349;48.692;8.186;2022-10-16T03:25:06;98510.53;;;14.57;100.00
59531;BME280;45349;48.692;8.186;2022-10-16T03:27:33;98516.25;;;14.60;100.00
59531;BME280;45349;48.692;8.186;2022-10-16T03:30:00;98505.34;;;14.72;100.00
59531;BME280;45349;48.692;8.186;2022-10-16T03:32:26;98513.28;;;14.79;100.00
59531;BME280;45349;48.692;8.186;2022-10-16T03:34:53;98509.75;;;14.86;100.00
59531;BME280;45349;48.692;8.186;2022-10-16T03:37:21;98512.84;;;14.90;100.00
59531;BME280;45349;48.692;8.186;2022-10-16T03:39:49;98505.75;;;14.90;100.00
59531;BME280;45349;48.692;8.186;2022-10-16T03:42:16;98515.75;;;14.95;100.00
59531;BME280;45349;48.692;8.186;2022-10-16T03:44:43;98501.97;;;14.93;100.00
59531;BME280;45349;48.692;8.186;2022-10-16T03:47:09;98499.50;;;14.91;100.00
59531;BME280;45349;48.692;8.186;2022-10-16T03:49:36;98493.88;;;14.95;100.00
59531;BME280;45349;48.692;8.186;2022-10-16T03:52:02;98498.63;;;14.99;100.00
59531;BME280;45349;48.692;8.186;2022-10-16T03:54:29;98504.94;;;15.05;100.00
59531;BME280;45349;48.692;8.186;2022-10-16T03:56:57;98510.66;;;15.09;100.00
59531;BME280;45349;48.692;8.186;2022-10-16T03:59:23;98515.72;;;15.10;100.00
59531;BME280;45349;48.692;8.186;2022-10-16T04:01:50;98520.91;;;15.03;100.00
59531;BME280;45349;48.692;8.186;2022-10-16T04:04:16;98521.44;;;14.99;100.00
59531;BME280;45349;48.692;8.186;2022-10-16T04:06:43;98520.25;;;14.86;100.00
59531;BME280;45349;48.692;8.186;2022-10-16T04:09:09;98524.00;;;14.77;100.00
59531;BME280;45349;48.692;8.186;2022-10-16T04:11:36;98535.72;;;14.66;100.00
59531;BME280;45349;48.692;8.186;2022-10-16T04:14:04;98541.88;;;14.58;100.00
59531;BME280;45349;48.692;8.186;2022-10-16T04:16:31;98547.66;;;14.54;100.00
59531;BME280;45349;48.692;8.186;2022-10-16T04:18:57;98553.25;;;14.51;100.00
59531;BME280;45349;48.692;8.186;2022-10-16T04:21:24;98555.25;;;14.49;100.00
59531;BME280;45349;48.692;8.186;2022-10-16T04:23:50;98552.69;;;14.40;100.00
59531;BME280;45349;48.692;8.186;2022-10-16T04:26:17;98549.13;;;14.33;100.00
59531;BME280;45349;48.692;8.186;2022-10-16T04:28:43;98556.84;;;14.35;100.00
59531;BME280;45349;48.692;8.186;2022-10-16T04:31:11;98558.56;;;14.27;100.00
59531;BME280;45349;48.692;8.186;2022-10-16T04:33:38;98564.63;;;14.28;100.00
59531;BME280;45349;48.692;8.186;2022-10-16T04:36:05;98565.97;;;14.24;100.00
59531;BME280;45349;48.692;8.186;2022-10-16T04:38:31;98564.50;;;14.21;100.00
59531;BME280;45349;48.692;8.186;2022-10-16T04:40:58;98552.38;;;14.20;100.00
59531;BME280;45349;48.692;8.186;2022-10-16T04:43:25;98553.19;;;14.21;100.00
59531;BME280;45349;48.692;8.186;2022-10-16T04:45:51;98552.56;;;14.19;100.00
59531;BME280;45349;48.692;8.186;2022-10-16T04:48:21;98565.22;;;14.15;100.00
59531;BME280;45349;48.692;8.186;2022-10-16T04:50:48;98575.41;;;14.10;100.00
59531;BME280;45349;48.692;8.186;2022-10-16T04:53:14;98591.50;;;14.07;100.00
59531;BME280;45349;48.692;8.186;2022-10-16T04:55:41;98582.69;;;13.99;100.00
59531;BME280;45349;48.692;8.186;2022-10-16T04:58:08;98584.91;;;13.87;100.00
59531;BME280;45349;48.692;8.186;2022-10-16T05:00:35;98583.44;;;13.85;100.00
59531;BME280;45349;48.692;8.186;2022-10-16T05:03:03;98586.94;;;13.77;100.00
59531;BME280;45349;48.692;8.186;2022-10-16T05:05:34;98598.75;;;13.73;100.00
59531;BME280;45349;48.692;8.186;2022-10-16T05:08:01;98591.88;;;13.72;100.00
59531;BME280;45349;48.692;8.186;2022-10-16T05:10:28;98589.13;;;13.65;100.00
59531;BME280;45349;48.692;8.186;2022-10-16T05:12:54;98593.56;;;13.65;100.00
59531;BME280;45349;48.692;8.186;2022-10-16T05:15:21;98596.81;;;13.67;100.00
59531;BME280;45349;48.692;8.186;2022-10-16T05:17:52;98600.09;;;13.69;100.00
59531;BME280;45349;48.692;8.186;2022-10-16T05:20:22;98605.34;;;13.69;100.00
59531;BME280;45349;48.692;8.186;2022-10-16T05:22:50;98619.09;;;13.71;100.00
59531;BME280;45349;48.692;8.186;2022-10-16T05:25:16;98614.50;;;13.73;100.00
59531;BME280;45349;48.692;8.186;2022-10-16T05:27:46;98610.88;;;13.74;100.00
59531;BME280;45349;48.692;8.186;2022-10-16T05:30:13;98607.63;;;13.72;100.00
59531;BME280;45349;48.692;8.186;2022-10-16T05:32:40;98606.81;;;13.71;100.00
59531;BME280;45349;48.692;8.186;2022-10-16T05:35:07;98613.22;;;13.69;100.00
59531;BME280;45349;48.692;8.186;2022-10-16T05:37:34;98616.66;;;13.69;100.00
59531;BME280;45349;48.692;8.186;2022-10-16T05:40:02;98611.41;;;13.69;100.00
59531;BME280;45349;48.692;8.186;2022-10-16T05:42:30;98610.78;;;13.67;100.00
59531;BME280;45349;48.692;8.186;2022-10-16T05:44:56;98614.72;;;13.63;100.00
59531;BME280;45349;48.692;8.186;2022-10-16T05:47:23;98612.56;;;13.67;100.00
59531;BME280;45349;48.692;8.186;2022-10-16T05:49:50;98603.88;;;13.66;100.00
59531;BME280;45349;48.692;8.186;2022-10-16T05:52:16;98604.34;;;13.70;100.00
59531;BME280;45349;48.692;8.186;2022-10-16T05:54:43;98606.50;;;13.66;100.00
59531;BME280;45349;48.692;8.186;2022-10-16T05:57:11;98608.78;;;13.69;100.00
59531;BME280;45349;48.692;8.186;2022-10-16T05:59:38;98621.06;;;13.69;100.00
59531;BME280;45349;48.692;8.186;2022-10-16T06:02:05;98626.16;;;13.70;100.00
59531;BME280;45349;48.692;8.186;2022-10-16T06:04:31;98633.06;;;13.71;100.00
59531;BME280;45349;48.692;8.186;2022-10-16T06:06:58;98638.28;;;13.71;100.00
59531;BME280;45349;48.692;8.186;2022-10-16T06:09:26;98635.97;;;13.77;100.00
59531;BME280;45349;48.692;8.186;2022-10-16T06:11:53;98621.03;;;13.77;100.00
59531;BME280;45349;48.692;8.186;2022-10-16T06:14:21;98615.59;;;13.79;100.00
59531;BME280;45349;48.692;8.186;2022-10-16T06:16:47;98623.97;;;13.82;100.00
59531;BME280;45349;48.692;8.186;2022-10-16T06:19:14;98622.44;;;13.88;100.00
59531;BME280;45349;48.692;8.186;2022-10-16T06:21:41;98625.91;;;13.88;100.00
59531;BME280;45349;48.692;8.186;2022-10-16T06:24:08;98618.50;;;13.92;100.00
59531;BME280;45349;48.692;8.186;2022-10-16T06:26:34;98615.72;;;13.94;100.00
59531;BME280;45349;48.692;8.186;2022-10-16T06:29:01;98617.34;;;13.95;100.00
59531;BME280;45349;48.692;8.186;2022-10-16T06:31:29;98632.56;;;13.99;100.00
59531;BME280;45349;48.692;8.186;2022-10-16T06:33:59;98634.53;;;13.97;100.00
59531;BME280;45349;48.692;8.186;2022-10-16T06:36:26;98632.56;;;13.99;100.00
59531;BME280;45349;48.692;8.186;2022-10-16T06:38:53;98643.53;;;14.03;100.00
59531;BME280;45349;48.692;8.186;2022-10-16T06:41:21;98643.69;;;14.01;100.00
59531;BME280;45349;48.692;8.186;2022-10-16T06:43:49;98638.28;;;14.03;100.00
59531;BME280;45349;48.692;8.186;2022-10-16T06:46:17;98652.72;;;14.07;100.00
59531;BME280;45349;48.692;8.186;2022-10-16T06:48:46;98648.25;;;14.08;100.00
59531;BME280;45349;48.692;8.186;2022-10-16T06:51:14;98647.13;;;14.10;100.00
59531;BME280;45349;48.692;8.186;2022-10-16T06:53:42;98659.25;;;14.11;100.00
59531;BME280;45349;48.692;8.186;2022-10-16T06:56:10;98653.81;;;14.13;100.00
59531;BME280;45349;48.692;8.186;2022-10-16T06:58:37;98653.75;;;14.21;100.00
59531;BME280;45349;48.692;8.186;2022-10-16T07:01:05;98662.59;;;14.28;100.00
59531;BME280;45349;48.692;8.186;2022-10-16T07:03:32;98659.25;;;14.35;100.00
59531;BME280;45349;48.692;8.186;2022-10-16T07:06:03;98666.44;;;14.41;100.00
59531;BME280;45349;48.692;8.186;2022-10-16T07:08:31;98664.22;;;14.53;100.00
59531;BME280;45349;48.692;8.186;2022-10-16T07:11:01;98664.28;;;14.68;100.00
59531;BME280;45349;48.692;8.186;2022-10-16T07:13:28;98671.88;;;14.86;100.00
59531;BME280;45349;48.692;8.186;2022-10-16T07:15:55;98668.28;;;15.02;100.00
59531;BME280;45349;48.692;8.186;2022-10-16T07:18:23;98678.63;;;15.18;100.00
59531;BME280;45349;48.692;8.186;2022-10-16T07:20:52;98667.53;;;15.31;100.00
59531;BME280;45349;48.692;8.186;2022-10-16T07:23:20;98663.53;;;15.50;100.00
59531;BME280;45349;48.692;8.186;2022-10-16T07:25:53;98670.56;;;15.80;100.00
59531;BME280;45349;48.692;8.186;2022-10-16T07:28:20;98686.34;;;15.95;100.00
59531;BME280;45349;48.692;8.186;2022-10-16T07:30:47;98693.78;;;16.06;100.00
59531;BME280;45349;48.692;8.186;2022-10-16T07:33:17;98701.59;;;16.15;99.04
59531;BME280;45349;48.692;8.186;2022-10-16T07:35:50;98696.78;;;16.18;99.40
59531;BME280;45349;48.692;8.186;2022-10-16T07:38:18;98701.09;;;16.26;100.00
59531;BME280;45349;48.692;8.186;2022-10-16T07:40:46;98710.47;;;16.29;100.00
59531;BME280;45349;48.692;8.186;2022-10-16T07:43:13;98724.00;;;16.26;100.00
59531;BME280;45349;48.692;8.186;2022-10-16T07:45:46;98737.81;;;16.28;100.00
59531;BME280;45349;48.692;8.186;2022-10-16T07:48:13;98740.88;;;16.31;100.00
59531;BME280;45349;48.692;8.186;2022-10-16T07:50:39;98742.50;;;16.32;100.00
59531;BME280;45349;48.692;8.186;2022-10-16T07:53:06;98740.81;;;16.25;100.00
59531;BME280;45349;48.692;8.186;2022-10-16T07:55:33;98731.91;;;16.26;100.00
59531;BME280;45349;48.692;8.186;2022-10-16T07:58:01;98733.66;;;16.18;100.00
59531;BME280;45349;48.692;8.186;2022-10-16T08:00:27;98735.44;;;16.18;100.00
59531;BME280;45349;48.692;8.186;2022-10-16T08:02:54;98730.19;;;16.18;100.00
59531;BME280;45349;48.692;8.186;2022-10-16T08:05:22;98728.38;;;16.18;100.00
59531;BME280;45349;48.692;8.186;2022-10-16T08:07:50;98720.91;;;16.22;100.00
59531;BME280;45349;48.692;8.186;2022-10-16T08:10:18;98720.16;;;16.28;100.00
59531;BME280;45349;48.692;8.186;2022-10-16T08:12:45;98722.16;;;16.26;100.00
59531;BME280;45349;48.692;8.186;2022-10-16T08:15:13;98727.97;;;16.36;100.00
59531;BME280;45349;48.692;8.186;2022-10-16T08:17:39;98725.91;;;16.53;100.00
59531;BME280;45349;48.692;8.186;2022-10-16T08:20:07;98727.00;;;16.81;100.00
59531;BME280;45349;48.692;8.186;2022-10-16T08:22:34;98740.50;;;17.15;100.00
59531;BME280;45349;48.692;8.186;2022-10-16T08:25:00;98739.38;;;17.31;100.00
59531;BME280;45349;48.692;8.186;2022-10-16T08:27:31;98730.16;;;17.41;100.00
59531;BME280;45349;48.692;8.186;2022-10-16T08:29:57;98731.25;;;17.61;100.00
59531;BME280;45349;48.692;8.186;2022-10-16T08:32:25;98738.66;;;17.79;98.07
59531;BME280;45349;48.692;8.186;2022-10-16T08:34:52;98748.97;;;18.02;96.09
59531;BME280;45349;48.692;8.186;2022-10-16T08:37:19;98757.72;;;18.03;97.62
59531;BME280;45349;48.692;8.186;2022-10-16T08:39:45;98749.13;;;18.42;98.49
59531;BME280;45349;48.692;8.186;2022-10-16T08:42:20;98745.94;;;18.67;93.39
59531;BME280;45349;48.692;8.186;2022-10-16T08:45:06;98747.59;;;18.82;89.35
59531;BME280;45349;48.692;8.186;2022-10-16T08:47:45;98743.53;;;19.13;89.30
59531;BME280;45349;48.692;8.186;2022-10-16T08:50:21;98759.00;;;19.29;87.24
59531;BME280;45349;48.692;8.186;2022-10-16T08:52:49;98765.31;;;19.42;88.41
59531;BME280;45349;48.692;8.186;2022-10-16T08:55:27;98768.78;;;19.56;88.49
59531;BME280;45349;48.692;8.186;2022-10-16T08:57:55;98769.78;;;19.61;88.91
59531;BME280;45349;48.692;8.186;2022-10-16T09:00:21;98771.00;;;19.66;87.59
59531;BME280;45349;48.692;8.186;2022-10-16T09:02:53;98782.19;;;19.68;83.70
59531;BME280;45349;48.692;8.186;2022-10-16T09:05:34;98776.25;;;19.86;86.06
59531;BME280;45349;48.692;8.186;2022-10-16T09:08:09;98777.06;;;19.93;84.03
59531;BME280;45349;48.692;8.186;2022-10-16T09:10:47;98777.69;;;19.95;80.35
59531;BME280;45349;48.692;8.186;2022-10-16T09:13:22;98782.91;;;20.15;80.30
59531;BME280;45349;48.692;8.186;2022-10-16T09:15:57;98790.69;;;20.10;79.64
59531;BME280;45349;48.692;8.186;2022-10-16T09:18:33;98787.47;;;20.47;75.47
59531;BME280;45349;48.692;8.186;2022-10-16T09:21:08;98795.72;;;20.77;74.85
59531;BME280;45349;48.692;8.186;2022-10-16T09:23:37;98794.97;;;20.96;74.65
59531;BME280;45349;48.692;8.186;2022-10-16T09:26:05;98795.28;;;20.74;76.78
59531;BME280;45349;48.692;8.186;2022-10-16T09:28:32;98813.22;;;20.33;78.28
59531;BME280;45349;48.692;8.186;2022-10-16T09:30:58;98813.94;;;19.88;79.95
59531;BME280;45349;48.692;8.186;2022-10-16T09:33:29;98821.31;;;19.18;82.97
59531;BME280;45349;48.692;8.186;2022-10-16T09:35:59;98828.63;;;19.37;85.31
59531;BME280;45349;48.692;8.186;2022-10-16T09:38:28;98833.56;;;19.46;86.04
59531;BME280;45349;48.692;8.186;2022-10-16T09:40:55;98839.06;;;19.52;85.96
59531;BME280;45349;48.692;8.186;2022-10-16T09:43:25;98835.97;;;19.48;86.09
59531;BME280;45349;48.692;8.186;2022-10-16T09:45:57;98829.25;;;19.52;85.05
59531;BME280;45349;48.692;8.186;2022-10-16T09:48:27;98846.72;;;19.13;85.43
59531;BME280;45349;48.692;8.186;2022-10-16T09:51:03;98846.16;;;19.31;84.97
59531;BME280;45349;48.692;8.186;2022-10-16T09:53:40;98844.13;;;19.20;86.28
59531;BME280;45349;48.692;8.186;2022-10-16T09:56:07;98853.28;;;19.24;85.26
59531;BME280;45349;48.692;8.186;2022-10-16T09:58:35;98850.81;;;19.15;84.89
59531;BME280;45349;48.692;8.186;2022-10-16T10:01:04;98850.19;;;19.00;86.75
59531;BME280;45349;48.692;8.186;2022-10-16T10:03:37;98861.53;;;18.94;87.20
59531;BME280;45349;48.692;8.186;2022-10-16T10:06:15;98859.50;;;18.89;87.10
59531;BME280;45349;48.692;8.186;2022-10-16T10:08:54;98849.72;;;18.83;88.59
59531;BME280;45349;48.692;8.186;2022-10-16T10:11:36;98861.81;;;18.57;89.53
59531;BME280;45349;48.692;8.186;2022-10-16T10:14:06;98862.03;;;18.62;90.99
59531;BME280;45349;48.692;8.186;2022-10-16T10:16:35;98864.28;;;18.65;89.33
59531;BME280;45349;48.692;8.186;2022-10-16T10:19:01;98863.91;;;18.68;88.98
59531;BME280;45349;48.692;8.186;2022-10-16T10:21:32;98870.53;;;19.06;87.70
59531;BME280;45349;48.692;8.186;2022-10-16T10:23:59;98868.53;;;19.22;86.39
59531;BME280;45349;48.692;8.186;2022-10-16T10:26:28;98866.31;;;19.52;86.29
59531;BME280;45349;48.692;8.186;2022-10-16T10:29:02;98870.78;;;19.79;84.26
59531;BME280;45349;48.692;8.186;2022-10-16T10:31:39;98876.72;;;19.87;84.44
59531;BME280;45349;48.692;8.186;2022-10-16T10:34:22;98871.56;;;20.19;81.04
59531;BME280;45349;48.692;8.186;2022-10-16T10:37:02;98881.16;;;20.27;82.74
59531;BME280;45349;48.692;8.186;2022-10-16T10:39:39;98880.28;;;20.40;80.41
59531;BME280;45349;48.692;8.186;2022-10-16T10:42:18;98883.88;;;20.66;79.05
59531;BME280;45349;48.692;8.186;2022-10-16T10:45:13;98889.38;;;20.71;80.86
59531;BME280;45349;48.692;8.186;2022-10-16T10:47:48;98889.13;;;20.86;77.05
59531;BME280;45349;48.692;8.186;2022-10-16T10:50:22;98890.97;;;20.86;78.58
59531;BME280;45349;48.692;8.186;2022-10-16T10:52:59;98888.34;;;21.18;74.74
59531;BME280;45349;48.692;8.186;2022-10-16T10:55:36;98883.03;;;21.18;76.07
59531;BME280;45349;48.692;8.186;2022-10-16T11:01:09;98874.41;;;21.22;79.02
59531;BME280;45349;48.692;8.186;2022-10-16T11:03:53;98880.41;;;21.43;77.24
59531;BME280;45349;48.692;8.186;2022-10-16T11:06:26;98866.31;;;21.43;74.32
59531;BME280;45349;48.692;8.186;2022-10-16T11:09:00;98865.50;;;21.10;71.47
59531;BME280;45349;48.692;8.186;2022-10-16T11:11:32;98864.66;;;21.16;68.90
59531;BME280;45349;48.692;8.186;2022-10-16T11:14:04;98865.19;;;21.25;73.47
59531;BME280;45349;48.692;8.186;2022-10-16T11:16:34;98865.13;;;21.06;82.46
59531;BME280;45349;48.692;8.186;2022-10-16T11:19:08;98859.19;;;21.11;78.05
59531;BME280;45349;48.692;8.186;2022-10-16T11:21:43;98854.97;;;21.29;78.80
59531;BME280;45349;48.692;8.186;2022-10-16T11:24:20;98859.78;;;21.38;77.61
59531;BME280;45349;48.692;8.186;2022-10-16T11:26:49;98855.81;;;21.55;78.46
59531;BME280;45349;48.692;8.186;2022-10-16T11:29:20;98853.53;;;21.58;71.44
59531;BME280;45349;48.692;8.186;2022-10-16T11:31:53;98855.56;;;21.63;66.56
59531;BME280;45349;48.692;8.186;2022-10-16T11:34:24;98853.91;;;21.87;65.96
59531;BME280;45349;48.692;8.186;2022-10-16T11:36:58;98863.56;;;22.25;58.88
59531;BME280;45349;48.692;8.186;2022-10-16T11:39:30;98857.94;;;22.52;63.33
59531;BME280;45349;48.692;8.186;2022-10-16T11:42:01;98860.28;;;22.61;58.87
59531;BME280;45349;48.692;8.186;2022-10-16T11:44:51;98862.31;;;22.47;58.08
59531;BME280;45349;48.692;8.186;2022-10-16T11:47:31;98862.91;;;22.49;57.96
59531;BME280;45349;48.692;8.186;2022-10-16T11:50:02;98855.63;;;22.37;59.81
59531;BME280;45349;48.692;8.186;2022-10-16T11:52:36;98858.56;;;21.92;63.86
59531;BME280;45349;48.692;8.186;2022-10-16T11:55:14;98852.53;;;22.03;61.28
59531;BME280;45349;48.692;8.186;2022-10-16T11:57:45;98855.56;;;22.07;61.96
59531;BME280;45349;48.692;8.186;2022-10-16T12:00:20;98848.94;;;22.16;63.25
59531;BME280;45349;48.692;8.186;2022-10-16T12:02:56;98854.31;;;22.28;65.69
59531;BME280;45349;48.692;8.186;2022-10-16T12:05:33;98852.44;;;22.29;63.64
59531;BME280;45349;48.692;8.186;2022-10-16T12:08:07;98851.50;;;22.23;60.09
59531;BME280;45349;48.692;8.186;2022-10-16T12:10:41;98845.00;;;22.19;62.92
59531;BME280;45349;48.692;8.186;2022-10-16T12:13:29;98842.28;;;22.25;63.97
59531;BME280;45349;48.692;8.186;2022-10-16T12:16:04;98846.38;;;22.40;62.53
59531;BME280;45349;48.692;8.186;2022-10-16T12:18:31;98850.47;;;22.42;62.40
59531;BME280;45349;48.692;8.186;2022-10-16T12:20:59;98853.03;;;22.31;63.21
59531;BME280;45349;48.692;8.186;2022-10-16T12:23:31;98850.47;;;22.24;66.30
59531;BME280;45349;48.692;8.186;2022-10-16T12:26:00;98846.84;;;22.18;68.32
59531;BME280;45349;48.692;8.186;2022-10-16T12:28:29;98851.13;;;22.01;64.43
59531;BME280;45349;48.692;8.186;2022-10-16T12:30:58;98847.44;;;22.02;64.07
59531;BME280;45349;48.692;8.186;2022-10-16T12:33:30;98852.31;;;22.05;62.61
59531;BME280;45349;48.692;8.186;2022-10-16T12:35:59;98851.50;;;22.04;65.95
59531;BME280;45349;48.692;8.186;2022-10-16T12:38:28;98845.97;;;22.06;69.98
59531;BME280;45349;48.692;8.186;2022-10-16T12:41:01;98845.00;;;22.00;69.54
59531;BME280;45349;48.692;8.186;2022-10-16T12:43:37;98842.13;;;22.02;69.59
59531;BME280;45349;48.692;8.186;2022-10-16T12:46:20;98844.06;;;22.13;68.63
59531;BME280;45349;48.692;8.186;2022-10-16T12:48:47;98835.91;;;22.26;68.40
59531;BME280;45349;48.692;8.186;2022-10-16T12:51:24;98843.72;;;22.40;67.08
59531;BME280;45349;48.692;8.186;2022-10-16T12:54:01;98846.13;;;22.48;62.73
59531;BME280;45349;48.692;8.186;2022-10-16T12:56:39;98847.28;;;22.52;63.59
59531;BME280;45349;48.692;8.186;2022-10-16T12:59:15;98840.22;;;22.46;60.49
59531;BME280;45349;48.692;8.186;2022-10-16T13:02:03;98842.81;;;22.53;60.95
59531;BME280;45349;48.692;8.186;2022-10-16T13:04:44;98840.63;;;22.62;59.75
59531;BME280;45349;48.692;8.186;2022-10-16T13:07:32;98842.78;;;22.72;59.00
59531;BME280;45349;48.692;8.186;2022-10-16T13:10:11;98839.88;;;22.73;59.71
59531;BME280;45349;48.692;8.186;2022-10-16T13:12:55;98850.41;;;22.80;62.67